ANB53Q LTAC-EDDB
Flight info
| Callsign | ANB53Q |
|---|---|
| Flight time | 2h 49m |
| Altitude | 34000 |
| Route | YAVRU UL615 DIGBO UQ26 TUDBU Q26 ETUBA DCT DVA DCT DEMOP DCT OGDAS DCT DESEN DCT DIMEX DCT GOVEN T205 NUKRO NUKRO1R |
| Aircraft | B38M/M-SDE1FGHILORVWXY/HB1 |
Departure
| Time | 2026-05-05 16:53 |
|---|---|
| Airport | Esenboğa International Airport (LTAC) |
Arrival
| Time | 2026-05-05 19:43 |
|---|---|
| Airport | Berlin Brandenburg Airport (EDDB) |
| Time | Latitude | Longitude | Altitude | Speed | Heading |
|---|---|---|---|---|---|
| 2026-05-05 16:18 | 40.11705 | 32.99426 | 3115 ft | 0 kts | 168° |
| 2026-05-05 16:39 | 40.11712 | 32.99424 | 3115 ft | 2 kts | 168° |
| 2026-05-05 16:39 | 40.11732 | 32.99419 | 3115 ft | 3 kts | 168° |
| 2026-05-05 16:40 | 40.11751 | 32.99414 | 3115 ft | 3 kts | 177° |
| 2026-05-05 16:40 | 40.11761 | 32.99419 | 3115 ft | 1 kts | 209° |
| 2026-05-05 16:40 | 40.11772 | 32.99427 | 3115 ft | 3 kts | 222° |
| 2026-05-05 16:40 | 40.11781 | 32.99445 | 3115 ft | 3 kts | 268° |
| 2026-05-05 16:41 | 40.11779 | 32.99471 | 3115 ft | 3 kts | 274° |
| 2026-05-05 16:41 | 40.11779 | 32.99486 | 3115 ft | 0 kts | 261° |
| 2026-05-05 16:43 | 40.11779 | 32.99483 | 3115 ft | 1 kts | 261° |
| 2026-05-05 16:43 | 40.11776 | 32.99463 | 3115 ft | 5 kts | 261° |
| 2026-05-05 16:43 | 40.11765 | 32.99383 | 3115 ft | 13 kts | 257° |
| 2026-05-05 16:44 | 40.11730 | 32.99244 | 3115 ft | 18 kts | 246° |
| 2026-05-05 16:44 | 40.11727 | 32.99130 | 3115 ft | 11 kts | 316° |
| 2026-05-05 16:44 | 40.11789 | 32.99065 | 3115 ft | 12 kts | 306° |
| 2026-05-05 16:44 | 40.11858 | 32.99055 | 3116 ft | 11 kts | 33° |
| 2026-05-05 16:45 | 40.11921 | 32.99115 | 3116 ft | 13 kts | 36° |
| 2026-05-05 16:45 | 40.12007 | 32.99197 | 3118 ft | 18 kts | 36° |
| 2026-05-05 16:45 | 40.12124 | 32.99309 | 3119 ft | 24 kts | 36° |
| 2026-05-05 16:45 | 40.12261 | 32.99441 | 3121 ft | 25 kts | 36° |
| 2026-05-05 16:46 | 40.12397 | 32.99570 | 3122 ft | 24 kts | 36° |
| 2026-05-05 16:46 | 40.12532 | 32.99697 | 3122 ft | 24 kts | 36° |
| 2026-05-05 16:46 | 40.12665 | 32.99822 | 3124 ft | 23 kts | 36° |
| 2026-05-05 16:46 | 40.12795 | 32.99948 | 3123 ft | 23 kts | 37° |
| 2026-05-05 16:47 | 40.12925 | 33.00074 | 3124 ft | 23 kts | 36° |
| 2026-05-05 16:47 | 40.13054 | 33.00197 | 3127 ft | 23 kts | 36° |
| 2026-05-05 16:47 | 40.13182 | 33.00320 | 3126 ft | 22 kts | 36° |
| 2026-05-05 16:47 | 40.13307 | 33.00439 | 3131 ft | 22 kts | 36° |
| 2026-05-05 16:48 | 40.13429 | 33.00555 | 3133 ft | 22 kts | 36° |
| 2026-05-05 16:48 | 40.13550 | 33.00671 | 3134 ft | 21 kts | 36° |
| 2026-05-05 16:48 | 40.13671 | 33.00787 | 3135 ft | 21 kts | 36° |
| 2026-05-05 16:48 | 40.13790 | 33.00900 | 3136 ft | 21 kts | 36° |
| 2026-05-05 16:49 | 40.13904 | 33.01009 | 3137 ft | 17 kts | 36° |
| 2026-05-05 16:49 | 40.13996 | 33.01078 | 3138 ft | 13 kts | 5° |
| 2026-05-05 16:49 | 40.14066 | 33.01054 | 3139 ft | 0 kts | 323° |
| 2026-05-05 16:49 | 40.14066 | 33.01053 | 3139 ft | 0 kts | 323° |
| 2026-05-05 16:51 | 40.14067 | 33.01053 | 3139 ft | 0 kts | 323° |
| 2026-05-05 16:51 | 40.14070 | 33.01049 | 3139 ft | 2 kts | 320° |
| 2026-05-05 16:51 | 40.14098 | 33.00998 | 3138 ft | 12 kts | 292° |
| 2026-05-05 16:51 | 40.14145 | 33.00874 | 3138 ft | 18 kts | 306° |
| 2026-05-05 16:52 | 40.14214 | 33.00729 | 3138 ft | 15 kts | 276° |
| 2026-05-05 16:52 | 40.14137 | 33.00620 | 3138 ft | 23 kts | 216° |
| 2026-05-05 16:52 | 40.13792 | 33.00290 | 3134 ft | 98 kts | 216° |
| 2026-05-05 16:52 | 40.13060 | 32.99590 | 3129 ft | 160 kts | 216° |
| 2026-05-05 16:53 | 40.12064 | 32.98646 | 3436 ft | 191 kts | 217° |
| 2026-05-05 16:53 | 40.10887 | 32.97529 | 4039 ft | 212 kts | 217° |
| 2026-05-05 16:53 | 40.09750 | 32.96461 | 5330 ft | 207 kts | 217° |
| 2026-05-05 16:53 | 40.08532 | 32.95312 | 5844 ft | 225 kts | 217° |
| 2026-05-05 16:54 | 40.07205 | 32.94060 | 6212 ft | 247 kts | 218° |
| 2026-05-05 16:54 | 40.05786 | 32.92725 | 6835 ft | 253 kts | 217° |
| 2026-05-05 16:54 | 40.04346 | 32.91373 | 7686 ft | 255 kts | 218° |
| 2026-05-05 16:54 | 40.03411 | 32.90416 | 8077 ft | 262 kts | 227° |
| 2026-05-05 16:55 | 40.02334 | 32.87559 | 8642 ft | 277 kts | 266° |
| 2026-05-05 16:55 | 40.02615 | 32.85101 | 9423 ft | 277 kts | 292° |
| 2026-05-05 16:55 | 40.03241 | 32.83633 | 9891 ft | 280 kts | 306° |
| 2026-05-05 16:55 | 40.04413 | 32.81558 | 10453 ft | 290 kts | 306° |
| 2026-05-05 16:56 | 40.05648 | 32.79353 | 10727 ft | 310 kts | 306° |
| 2026-05-05 16:56 | 40.06976 | 32.77005 | 10963 ft | 330 kts | 307° |
| 2026-05-05 16:56 | 40.08371 | 32.74578 | 11233 ft | 346 kts | 307° |
| 2026-05-05 16:56 | 40.09831 | 32.72006 | 11677 ft | 355 kts | 307° |
| 2026-05-05 16:57 | 40.11312 | 32.69399 | 12374 ft | 358 kts | 307° |
| 2026-05-05 16:57 | 40.12822 | 32.66747 | 12929 ft | 364 kts | 307° |
| 2026-05-05 16:57 | 40.14313 | 32.64129 | 13636 ft | 365 kts | 307° |
| 2026-05-05 16:57 | 40.15839 | 32.61445 | 14256 ft | 368 kts | 308° |
| 2026-05-05 16:58 | 40.17375 | 32.58744 | 14873 ft | 370 kts | 308° |
| 2026-05-05 16:58 | 40.18896 | 32.56068 | 15453 ft | 372 kts | 308° |
| 2026-05-05 16:58 | 40.20472 | 32.53338 | 15851 ft | 376 kts | 312° |
| 2026-05-05 16:58 | 40.22339 | 32.50963 | 15989 ft | 374 kts | 318° |
| 2026-05-05 16:59 | 40.24231 | 32.48632 | 16006 ft | 373 kts | 317° |
| 2026-05-05 16:59 | 40.26133 | 32.46285 | 16007 ft | 373 kts | 317° |
| 2026-05-05 16:59 | 40.27999 | 32.43981 | 16009 ft | 373 kts | 317° |
| 2026-05-05 16:59 | 40.29891 | 32.41645 | 16009 ft | 374 kts | 317° |
| 2026-05-05 17:00 | 40.31788 | 32.39301 | 16010 ft | 374 kts | 317° |
| 2026-05-05 17:00 | 40.33660 | 32.36985 | 16013 ft | 374 kts | 317° |
| 2026-05-05 17:00 | 40.35555 | 32.34639 | 16025 ft | 374 kts | 317° |
| 2026-05-05 17:00 | 40.37451 | 32.32289 | 16022 ft | 374 kts | 317° |
| 2026-05-05 17:01 | 40.39339 | 32.29949 | 16021 ft | 373 kts | 317° |
| 2026-05-05 17:01 | 40.41226 | 32.27607 | 16304 ft | 375 kts | 317° |
| 2026-05-05 17:01 | 40.43131 | 32.25241 | 16922 ft | 377 kts | 317° |
| 2026-05-05 17:01 | 40.45057 | 32.22847 | 17405 ft | 382 kts | 318° |
| 2026-05-05 17:02 | 40.46871 | 32.20339 | 17961 ft | 386 kts | 307° |
| 2026-05-05 17:02 | 40.48111 | 32.17194 | 18521 ft | 391 kts | 294° |
| 2026-05-05 17:02 | 40.49150 | 32.13850 | 18945 ft | 395 kts | 294° |
| 2026-05-05 17:02 | 40.50164 | 32.10530 | 19393 ft | 397 kts | 294° |
| 2026-05-05 17:03 | 40.51184 | 32.07134 | 19841 ft | 400 kts | 294° |
| 2026-05-05 17:03 | 40.52203 | 32.03707 | 20306 ft | 402 kts | 294° |
| 2026-05-05 17:03 | 40.53220 | 32.00274 | 20733 ft | 405 kts | 294° |
| 2026-05-05 17:03 | 40.54235 | 31.96835 | 21157 ft | 408 kts | 294° |
| 2026-05-05 17:04 | 40.55268 | 31.93329 | 21608 ft | 411 kts | 294° |
| 2026-05-05 17:04 | 40.56305 | 31.89804 | 22044 ft | 414 kts | 294° |
| 2026-05-05 17:04 | 40.57332 | 31.86311 | 22480 ft | 416 kts | 294° |
| 2026-05-05 17:04 | 40.58331 | 31.82710 | 22894 ft | 420 kts | 290° |
| 2026-05-05 17:05 | 40.59230 | 31.79016 | 23344 ft | 423 kts | 291° |
| 2026-05-05 17:05 | 40.60141 | 31.75321 | 23729 ft | 425 kts | 291° |
| 2026-05-05 17:05 | 40.61068 | 31.71592 | 24110 ft | 428 kts | 290° |
| 2026-05-05 17:05 | 40.61982 | 31.67912 | 24487 ft | 429 kts | 291° |
| 2026-05-05 17:06 | 40.62915 | 31.64155 | 24862 ft | 431 kts | 290° |
| 2026-05-05 17:06 | 40.63892 | 31.60402 | 25230 ft | 432 kts | 296° |
| 2026-05-05 17:06 | 40.65284 | 31.56899 | 25617 ft | 432 kts | 300° |
| 2026-05-05 17:06 | 40.66639 | 31.53398 | 25954 ft | 435 kts | 299° |
| 2026-05-05 17:07 | 40.67995 | 31.49807 | 26347 ft | 437 kts | 299° |
| 2026-05-05 17:07 | 40.69332 | 31.46214 | 26699 ft | 439 kts | 298° |
| 2026-05-05 17:07 | 40.70683 | 31.42555 | 27033 ft | 441 kts | 298° |
| 2026-05-05 17:07 | 40.72010 | 31.38951 | 27342 ft | 444 kts | 298° |
| 2026-05-05 17:08 | 40.73362 | 31.35270 | 27698 ft | 446 kts | 298° |
| 2026-05-05 17:08 | 40.74718 | 31.31574 | 28039 ft | 448 kts | 298° |
| 2026-05-05 17:08 | 40.76077 | 31.27865 | 28363 ft | 450 kts | 298° |
| 2026-05-05 17:08 | 40.77448 | 31.24119 | 28701 ft | 452 kts | 298° |
| 2026-05-05 17:09 | 40.78805 | 31.20405 | 29012 ft | 454 kts | 298° |
| 2026-05-05 17:09 | 40.80179 | 31.16640 | 29316 ft | 456 kts | 298° |
| 2026-05-05 17:09 | 40.81560 | 31.12849 | 29637 ft | 457 kts | 298° |
| 2026-05-05 17:09 | 40.82925 | 31.09101 | 30068 ft | 456 kts | 298° |
| 2026-05-05 17:10 | 40.84299 | 31.05321 | 30444 ft | 455 kts | 298° |
| 2026-05-05 17:10 | 40.85674 | 31.01532 | 30813 ft | 454 kts | 298° |
| 2026-05-05 17:10 | 40.87032 | 30.97787 | 31187 ft | 453 kts | 298° |
| 2026-05-05 17:10 | 40.88376 | 30.94076 | 31559 ft | 451 kts | 298° |
| 2026-05-05 17:11 | 40.89728 | 30.90337 | 31924 ft | 450 kts | 298° |
| 2026-05-05 17:11 | 40.91075 | 30.86607 | 32269 ft | 449 kts | 298° |
| 2026-05-05 17:11 | 40.92422 | 30.82873 | 32595 ft | 448 kts | 298° |
| 2026-05-05 17:11 | 40.93759 | 30.79161 | 32990 ft | 446 kts | 298° |
| 2026-05-05 17:12 | 40.95080 | 30.75490 | 33356 ft | 445 kts | 298° |
| 2026-05-05 17:12 | 40.96412 | 30.71782 | 33714 ft | 444 kts | 298° |
| 2026-05-05 17:12 | 40.97729 | 30.68112 | 34025 ft | 443 kts | 298° |
| 2026-05-05 17:12 | 40.99040 | 30.64454 | 34075 ft | 443 kts | 298° |
| 2026-05-05 17:13 | 41.01684 | 30.57060 | 34075 ft | 443 kts | 298° |
| 2026-05-05 17:13 | 41.04312 | 30.49694 | 34069 ft | 443 kts | 298° |
| 2026-05-05 17:14 | 41.06926 | 30.42347 | 34068 ft | 443 kts | 298° |
| 2026-05-05 17:14 | 41.09554 | 30.34944 | 34060 ft | 444 kts | 298° |
| 2026-05-05 17:15 | 41.12190 | 30.27497 | 34068 ft | 445 kts | 297° |
| 2026-05-05 17:15 | 41.14807 | 30.20086 | 34067 ft | 445 kts | 297° |
| 2026-05-05 17:16 | 41.17442 | 30.12601 | 34068 ft | 445 kts | 297° |
| 2026-05-05 17:16 | 41.20051 | 30.05171 | 34061 ft | 448 kts | 297° |
| 2026-05-05 17:17 | 41.22693 | 29.97631 | 34066 ft | 448 kts | 297° |
| 2026-05-05 17:17 | 41.25309 | 29.90143 | 34067 ft | 448 kts | 297° |
| 2026-05-05 17:18 | 41.27929 | 29.82622 | 34055 ft | 448 kts | 297° |
| 2026-05-05 17:18 | 41.30538 | 29.75115 | 34074 ft | 450 kts | 297° |
| 2026-05-05 17:19 | 41.33164 | 29.67536 | 34063 ft | 450 kts | 297° |
| 2026-05-05 17:19 | 41.35771 | 29.59992 | 34064 ft | 450 kts | 297° |
| 2026-05-05 17:20 | 41.38388 | 29.52401 | 34064 ft | 451 kts | 296° |
| 2026-05-05 17:20 | 41.40990 | 29.44832 | 34066 ft | 452 kts | 296° |
| 2026-05-05 17:21 | 41.43604 | 29.37207 | 34072 ft | 452 kts | 296° |
| 2026-05-05 17:22 | 41.47504 | 29.25792 | 34048 ft | 452 kts | 296° |
| 2026-05-05 17:22 | 41.50098 | 29.18172 | 34070 ft | 453 kts | 296° |
| 2026-05-05 17:23 | 41.52712 | 29.10476 | 34074 ft | 453 kts | 296° |
| 2026-05-05 17:23 | 41.55292 | 29.02855 | 34072 ft | 453 kts | 296° |
| 2026-05-05 17:24 | 41.57894 | 28.95151 | 34063 ft | 453 kts | 296° |
| 2026-05-05 17:24 | 41.60471 | 28.87499 | 34069 ft | 454 kts | 296° |
| 2026-05-05 17:25 | 41.63051 | 28.79814 | 34073 ft | 454 kts | 296° |
| 2026-05-05 17:25 | 41.65640 | 28.72085 | 34072 ft | 454 kts | 296° |
| 2026-05-05 17:26 | 41.68209 | 28.64392 | 34073 ft | 455 kts | 296° |
| 2026-05-05 17:26 | 41.70783 | 28.56663 | 34072 ft | 455 kts | 296° |
| 2026-05-05 17:27 | 41.73355 | 28.48917 | 34070 ft | 455 kts | 296° |
| 2026-05-05 17:27 | 41.75918 | 28.41176 | 34056 ft | 455 kts | 295° |
| 2026-05-05 17:28 | 41.78471 | 28.33446 | 34074 ft | 456 kts | 295° |
| 2026-05-05 17:28 | 41.81021 | 28.25701 | 34072 ft | 456 kts | 295° |
| 2026-05-05 17:29 | 41.83587 | 28.17886 | 34073 ft | 456 kts | 295° |
| 2026-05-05 17:29 | 41.86125 | 28.10132 | 34072 ft | 456 kts | 295° |
| 2026-05-05 17:30 | 41.88674 | 28.02324 | 34069 ft | 456 kts | 295° |
| 2026-05-05 17:30 | 41.91197 | 27.94574 | 34070 ft | 456 kts | 295° |
| 2026-05-05 17:31 | 41.93740 | 27.86738 | 34071 ft | 456 kts | 295° |
| 2026-05-05 17:31 | 41.96341 | 27.79007 | 34047 ft | 455 kts | 303° |
| 2026-05-05 17:31 | 41.98270 | 27.75682 | 34065 ft | 451 kts | 316° |
| 2026-05-05 17:32 | 42.00467 | 27.72704 | 34050 ft | 453 kts | 315° |
| 2026-05-05 17:32 | 42.04875 | 27.66622 | 34063 ft | 453 kts | 315° |
| 2026-05-05 17:33 | 42.09296 | 27.60549 | 34051 ft | 452 kts | 316° |
| 2026-05-05 17:33 | 42.13681 | 27.54513 | 34053 ft | 449 kts | 316° |
| 2026-05-05 17:34 | 42.18048 | 27.48491 | 34052 ft | 452 kts | 315° |
| 2026-05-05 17:34 | 42.22453 | 27.42404 | 34052 ft | 452 kts | 315° |
| 2026-05-05 17:35 | 42.26811 | 27.36369 | 34052 ft | 450 kts | 315° |
| 2026-05-05 17:35 | 42.31178 | 27.30308 | 34047 ft | 449 kts | 315° |
| 2026-05-05 17:36 | 42.35511 | 27.24283 | 34049 ft | 449 kts | 315° |
| 2026-05-05 17:36 | 42.39859 | 27.18223 | 34044 ft | 448 kts | 315° |
| 2026-05-05 17:37 | 42.44182 | 27.12186 | 34046 ft | 441 kts | 315° |
| 2026-05-05 17:37 | 42.48451 | 27.06211 | 34048 ft | 446 kts | 315° |
| 2026-05-05 17:38 | 42.52784 | 27.00134 | 34046 ft | 446 kts | 315° |
| 2026-05-05 17:38 | 42.57069 | 26.94112 | 34035 ft | 446 kts | 316° |
| 2026-05-05 17:39 | 42.61335 | 26.88104 | 34046 ft | 440 kts | 316° |
| 2026-05-05 17:39 | 42.64889 | 26.83087 | 34043 ft | 441 kts | 316° |
| 2026-05-05 17:40 | 42.69128 | 26.77095 | 34047 ft | 441 kts | 316° |
| 2026-05-05 17:40 | 42.74070 | 26.70093 | 34030 ft | 440 kts | 316° |
| 2026-05-05 17:41 | 42.77588 | 26.65099 | 34031 ft | 440 kts | 316° |
| 2026-05-05 17:41 | 42.81897 | 26.59146 | 34027 ft | 439 kts | 322° |
| 2026-05-05 17:42 | 42.86582 | 26.53843 | 34022 ft | 439 kts | 322° |
| 2026-05-05 17:42 | 42.91300 | 26.48522 | 34013 ft | 438 kts | 322° |
| 2026-05-05 17:43 | 42.95962 | 26.43260 | 34023 ft | 435 kts | 322° |
| 2026-05-05 17:43 | 43.00615 | 26.37996 | 34029 ft | 436 kts | 322° |
| 2026-05-05 17:44 | 43.05292 | 26.32695 | 34016 ft | 436 kts | 322° |
| 2026-05-05 17:44 | 43.09952 | 26.27403 | 33990 ft | 436 kts | 322° |
| 2026-05-05 17:45 | 43.14599 | 26.22114 | 33997 ft | 432 kts | 322° |
| 2026-05-05 17:45 | 43.19200 | 26.16868 | 34001 ft | 433 kts | 322° |
| 2026-05-05 17:46 | 43.23813 | 26.11596 | 34002 ft | 432 kts | 322° |
| 2026-05-05 17:46 | 43.28454 | 26.06283 | 33976 ft | 433 kts | 322° |
| 2026-05-05 17:47 | 43.33040 | 26.01021 | 33992 ft | 433 kts | 322° |
| 2026-05-05 17:47 | 43.37676 | 25.95690 | 33995 ft | 434 kts | 322° |
| 2026-05-05 17:48 | 43.42300 | 25.90363 | 33998 ft | 434 kts | 322° |
| 2026-05-05 17:48 | 43.46945 | 25.85001 | 33989 ft | 434 kts | 322° |
| 2026-05-05 17:49 | 43.51537 | 25.79689 | 33990 ft | 434 kts | 322° |
| 2026-05-05 17:49 | 43.56166 | 25.74322 | 33995 ft | 434 kts | 322° |
| 2026-05-05 17:50 | 43.60770 | 25.68975 | 33987 ft | 435 kts | 322° |
| 2026-05-05 17:50 | 43.65396 | 25.63589 | 33991 ft | 436 kts | 322° |
| 2026-05-05 17:51 | 43.70028 | 25.58186 | 33988 ft | 433 kts | 322° |
| 2026-05-05 17:51 | 43.74639 | 25.52796 | 33994 ft | 434 kts | 322° |
| 2026-05-05 17:52 | 43.79226 | 25.47423 | 33987 ft | 434 kts | 321° |
| 2026-05-05 17:52 | 43.83842 | 25.42004 | 33993 ft | 434 kts | 321° |
| 2026-05-05 17:53 | 43.88426 | 25.36612 | 33987 ft | 432 kts | 321° |
| 2026-05-05 17:53 | 43.92968 | 25.31258 | 33992 ft | 431 kts | 321° |
| 2026-05-05 17:54 | 43.97553 | 25.25842 | 33992 ft | 431 kts | 321° |
| 2026-05-05 17:54 | 44.02113 | 25.20444 | 33989 ft | 431 kts | 321° |
| 2026-05-05 17:55 | 44.06663 | 25.15047 | 33982 ft | 430 kts | 321° |
| 2026-05-05 17:55 | 44.11219 | 25.09632 | 33987 ft | 430 kts | 321° |
| 2026-05-05 17:56 | 44.15750 | 25.04234 | 33986 ft | 431 kts | 321° |
| 2026-05-05 17:56 | 44.20307 | 24.98795 | 33986 ft | 432 kts | 321° |
| 2026-05-05 17:57 | 44.24880 | 24.93324 | 33978 ft | 431 kts | 321° |
| 2026-05-05 17:57 | 44.29392 | 24.87916 | 33984 ft | 430 kts | 321° |
| 2026-05-05 17:58 | 44.33946 | 24.82445 | 33985 ft | 430 kts | 321° |
| 2026-05-05 17:58 | 44.38488 | 24.76977 | 33985 ft | 430 kts | 321° |
| 2026-05-05 17:59 | 44.43010 | 24.71522 | 33979 ft | 430 kts | 320° |
| 2026-05-05 17:59 | 44.47524 | 24.66066 | 33984 ft | 430 kts | 320° |
| 2026-05-05 18:00 | 44.52036 | 24.60599 | 33985 ft | 430 kts | 320° |
| 2026-05-05 18:00 | 44.56566 | 24.55099 | 33987 ft | 430 kts | 320° |
| 2026-05-05 18:01 | 44.61071 | 24.49618 | 33985 ft | 430 kts | 320° |
| 2026-05-05 18:01 | 44.65593 | 24.44103 | 33979 ft | 429 kts | 320° |
| 2026-05-05 18:02 | 44.70075 | 24.38627 | 33984 ft | 429 kts | 320° |
| 2026-05-05 18:02 | 44.74602 | 24.33084 | 33984 ft | 431 kts | 320° |
| 2026-05-05 18:03 | 44.79096 | 24.27568 | 33982 ft | 431 kts | 320° |
| 2026-05-05 18:03 | 44.83604 | 24.22025 | 33977 ft | 430 kts | 320° |
| 2026-05-05 18:04 | 44.88112 | 24.16469 | 33984 ft | 429 kts | 320° |
| 2026-05-05 18:04 | 44.92606 | 24.10917 | 33986 ft | 429 kts | 320° |
| 2026-05-05 18:05 | 44.97090 | 24.05367 | 33983 ft | 429 kts | 320° |
| 2026-05-05 18:05 | 45.01562 | 23.99820 | 33985 ft | 430 kts | 320° |
| 2026-05-05 18:06 | 45.06073 | 23.94212 | 33988 ft | 431 kts | 320° |
| 2026-05-05 18:06 | 45.10557 | 23.88625 | 33998 ft | 431 kts | 320° |
| 2026-05-05 18:07 | 45.15040 | 23.83028 | 34004 ft | 431 kts | 320° |
| 2026-05-05 18:07 | 45.19548 | 23.77387 | 34008 ft | 431 kts | 320° |
| 2026-05-05 18:08 | 45.24012 | 23.71787 | 34005 ft | 432 kts | 319° |
| 2026-05-05 18:08 | 45.28541 | 23.66096 | 34013 ft | 433 kts | 319° |
| 2026-05-05 18:09 | 45.33034 | 23.60435 | 34017 ft | 433 kts | 319° |
| 2026-05-05 18:09 | 45.37554 | 23.54729 | 34021 ft | 433 kts | 319° |
| 2026-05-05 18:10 | 45.42038 | 23.49055 | 34013 ft | 433 kts | 319° |
| 2026-05-05 18:10 | 45.46521 | 23.43371 | 34020 ft | 433 kts | 319° |
| 2026-05-05 18:11 | 45.51023 | 23.37650 | 34026 ft | 433 kts | 319° |
| 2026-05-05 18:11 | 45.55496 | 23.31954 | 34010 ft | 433 kts | 319° |
| 2026-05-05 18:12 | 45.59985 | 23.26226 | 34015 ft | 433 kts | 319° |
| 2026-05-05 18:12 | 45.64487 | 23.20469 | 33989 ft | 435 kts | 319° |
| 2026-05-05 18:13 | 45.68984 | 23.14707 | 33985 ft | 435 kts | 319° |
| 2026-05-05 18:13 | 45.73503 | 23.08903 | 33987 ft | 435 kts | 319° |
| 2026-05-05 18:14 | 45.77967 | 23.03157 | 33974 ft | 435 kts | 319° |
| 2026-05-05 18:14 | 45.82480 | 22.97361 | 33967 ft | 437 kts | 321° |
| 2026-05-05 18:15 | 45.87194 | 22.91885 | 33975 ft | 438 kts | 321° |
| 2026-05-05 18:15 | 45.91929 | 22.86332 | 33977 ft | 438 kts | 321° |
| 2026-05-05 18:16 | 45.96621 | 22.80812 | 33972 ft | 438 kts | 321° |
| 2026-05-05 18:16 | 46.01317 | 22.75272 | 33961 ft | 437 kts | 321° |
| 2026-05-05 18:17 | 46.06056 | 22.69670 | 33976 ft | 441 kts | 321° |
| 2026-05-05 18:17 | 46.10768 | 22.64088 | 33967 ft | 440 kts | 321° |
| 2026-05-05 18:18 | 46.15511 | 22.58455 | 33978 ft | 441 kts | 320° |
| 2026-05-05 18:18 | 46.20211 | 22.52862 | 33968 ft | 440 kts | 321° |
| 2026-05-05 18:19 | 46.24940 | 22.47219 | 33971 ft | 442 kts | 320° |
| 2026-05-05 18:19 | 46.29703 | 22.41524 | 33964 ft | 444 kts | 320° |
| 2026-05-05 18:20 | 46.34440 | 22.35845 | 33971 ft | 444 kts | 320° |
| 2026-05-05 18:20 | 46.39157 | 22.30179 | 33962 ft | 444 kts | 320° |
| 2026-05-05 18:21 | 46.43924 | 22.24439 | 33960 ft | 444 kts | 320° |
| 2026-05-05 18:21 | 46.48671 | 22.18710 | 33960 ft | 447 kts | 320° |
| 2026-05-05 18:22 | 46.53407 | 22.12979 | 33945 ft | 447 kts | 320° |
| 2026-05-05 18:22 | 46.58189 | 22.07180 | 33943 ft | 447 kts | 320° |
| 2026-05-05 18:23 | 46.62946 | 22.01399 | 33936 ft | 447 kts | 320° |
| 2026-05-05 18:23 | 46.67737 | 21.95560 | 33937 ft | 448 kts | 319° |
| 2026-05-05 18:24 | 46.72501 | 21.89741 | 33933 ft | 449 kts | 319° |
| 2026-05-05 18:24 | 46.77292 | 21.83876 | 33934 ft | 449 kts | 319° |
| 2026-05-05 18:25 | 46.82062 | 21.78021 | 33934 ft | 449 kts | 319° |
| 2026-05-05 18:25 | 46.86809 | 21.72183 | 33935 ft | 449 kts | 319° |
| 2026-05-05 18:26 | 46.91568 | 21.66314 | 33932 ft | 447 kts | 319° |
| 2026-05-05 18:26 | 46.96332 | 21.60424 | 33931 ft | 447 kts | 319° |
| 2026-05-05 18:27 | 47.01078 | 21.54544 | 33923 ft | 447 kts | 318° |
| 2026-05-05 18:27 | 47.05821 | 21.48653 | 33916 ft | 449 kts | 319° |
| 2026-05-05 18:28 | 47.12171 | 21.40742 | 33917 ft | 448 kts | 318° |
| 2026-05-05 18:28 | 47.16933 | 21.34794 | 33914 ft | 448 kts | 318° |
| 2026-05-05 18:29 | 47.21669 | 21.28864 | 33917 ft | 448 kts | 318° |
| 2026-05-05 18:29 | 47.26401 | 21.22923 | 33911 ft | 448 kts | 318° |
| 2026-05-05 18:30 | 47.31149 | 21.16951 | 33919 ft | 448 kts | 318° |
| 2026-05-05 18:30 | 47.35863 | 21.11003 | 33912 ft | 448 kts | 318° |
| 2026-05-05 18:31 | 47.40621 | 21.04987 | 33911 ft | 449 kts | 318° |
| 2026-05-05 18:31 | 47.45345 | 20.98998 | 33911 ft | 449 kts | 318° |
| 2026-05-05 18:32 | 47.50054 | 20.93015 | 33906 ft | 449 kts | 318° |
| 2026-05-05 18:32 | 47.54795 | 20.86976 | 33905 ft | 449 kts | 318° |
| 2026-05-05 18:33 | 47.59511 | 20.80952 | 33907 ft | 448 kts | 317° |
| 2026-05-05 18:33 | 47.64219 | 20.74926 | 33905 ft | 450 kts | 317° |
| 2026-05-05 18:34 | 47.68962 | 20.68838 | 33907 ft | 450 kts | 317° |
| 2026-05-05 18:34 | 47.73676 | 20.62774 | 33905 ft | 450 kts | 317° |
| 2026-05-05 18:35 | 47.78408 | 20.56671 | 33910 ft | 447 kts | 317° |
| 2026-05-05 18:35 | 47.83093 | 20.50612 | 33911 ft | 447 kts | 317° |
| 2026-05-05 18:36 | 47.87794 | 20.44519 | 33913 ft | 447 kts | 317° |
| 2026-05-05 18:36 | 47.92483 | 20.38426 | 33915 ft | 449 kts | 317° |
| 2026-05-05 18:37 | 47.97198 | 20.32286 | 33923 ft | 449 kts | 317° |
| 2026-05-05 18:37 | 48.01863 | 20.26197 | 33914 ft | 446 kts | 317° |
| 2026-05-05 18:38 | 48.06544 | 20.20072 | 33919 ft | 446 kts | 317° |
| 2026-05-05 18:38 | 48.11192 | 20.13976 | 33919 ft | 446 kts | 317° |
| 2026-05-05 18:39 | 48.15848 | 20.07854 | 33915 ft | 446 kts | 317° |
| 2026-05-05 18:39 | 48.20540 | 20.01705 | 33925 ft | 446 kts | 317° |
| 2026-05-05 18:40 | 48.25186 | 19.95623 | 33919 ft | 446 kts | 317° |
| 2026-05-05 18:40 | 48.29872 | 19.89473 | 33914 ft | 446 kts | 317° |
| 2026-05-05 18:41 | 48.34551 | 19.83318 | 33919 ft | 446 kts | 317° |
| 2026-05-05 18:41 | 48.39210 | 19.77173 | 33921 ft | 446 kts | 317° |
| 2026-05-05 18:42 | 48.43844 | 19.71047 | 33922 ft | 446 kts | 317° |
| 2026-05-05 18:42 | 48.48519 | 19.64851 | 33916 ft | 446 kts | 316° |
| 2026-05-05 18:43 | 48.53175 | 19.58663 | 33914 ft | 448 kts | 317° |
| 2026-05-05 18:43 | 48.57871 | 19.52405 | 33926 ft | 447 kts | 316° |
| 2026-05-05 18:44 | 48.62509 | 19.46210 | 33918 ft | 448 kts | 316° |
| 2026-05-05 18:44 | 48.67192 | 19.39938 | 33921 ft | 447 kts | 316° |
| 2026-05-05 18:45 | 48.71831 | 19.33710 | 33916 ft | 447 kts | 316° |
| 2026-05-05 18:45 | 48.76482 | 19.27448 | 33908 ft | 447 kts | 316° |
| 2026-05-05 18:46 | 48.81117 | 19.21193 | 33909 ft | 448 kts | 315° |
| 2026-05-05 18:46 | 48.85749 | 19.14925 | 33918 ft | 445 kts | 316° |
| 2026-05-05 18:47 | 48.90351 | 19.08683 | 33895 ft | 446 kts | 316° |
| 2026-05-05 18:47 | 48.94990 | 19.02376 | 33888 ft | 447 kts | 316° |
| 2026-05-05 18:48 | 48.99617 | 18.96064 | 33889 ft | 448 kts | 316° |
| 2026-05-05 18:48 | 49.04265 | 18.89710 | 33882 ft | 447 kts | 316° |
| 2026-05-05 18:49 | 49.08865 | 18.83404 | 33862 ft | 448 kts | 316° |
| 2026-05-05 18:49 | 49.13491 | 18.77046 | 33870 ft | 448 kts | 316° |
| 2026-05-05 18:50 | 49.18134 | 18.70649 | 33862 ft | 447 kts | 316° |
| 2026-05-05 18:50 | 49.22733 | 18.64295 | 33858 ft | 447 kts | 316° |
| 2026-05-05 18:51 | 49.27339 | 18.57914 | 33855 ft | 447 kts | 316° |
| 2026-05-05 18:51 | 49.31965 | 18.51488 | 33874 ft | 446 kts | 315° |
| 2026-05-05 18:52 | 49.36539 | 18.45120 | 33861 ft | 445 kts | 315° |
| 2026-05-05 18:52 | 49.41092 | 18.38763 | 33856 ft | 444 kts | 315° |
| 2026-05-05 18:53 | 49.45649 | 18.32384 | 33825 ft | 447 kts | 316° |
| 2026-05-05 18:53 | 49.50247 | 18.25931 | 33811 ft | 447 kts | 315° |
| 2026-05-05 18:54 | 49.54840 | 18.19467 | 33813 ft | 447 kts | 315° |
| 2026-05-05 18:54 | 49.59436 | 18.12985 | 33807 ft | 448 kts | 316° |
| 2026-05-05 18:55 | 49.64043 | 18.06472 | 33808 ft | 449 kts | 316° |
| 2026-05-05 18:55 | 49.68607 | 18.00002 | 33802 ft | 447 kts | 316° |
| 2026-05-05 18:56 | 49.71088 | 17.97084 | 33791 ft | 450 kts | 329° |
| 2026-05-05 18:56 | 49.73918 | 17.94918 | 33806 ft | 451 kts | 330° |
| 2026-05-05 18:56 | 49.79446 | 17.90468 | 33803 ft | 451 kts | 330° |
| 2026-05-05 18:57 | 49.85037 | 17.85954 | 33802 ft | 452 kts | 330° |
| 2026-05-05 18:57 | 49.90597 | 17.81453 | 33805 ft | 452 kts | 330° |
| 2026-05-05 18:58 | 49.96196 | 17.76909 | 33818 ft | 451 kts | 330° |
| 2026-05-05 18:58 | 50.01733 | 17.72403 | 33808 ft | 451 kts | 330° |
| 2026-05-05 18:59 | 50.07288 | 17.67870 | 33812 ft | 451 kts | 330° |
| 2026-05-05 18:59 | 50.12837 | 17.63330 | 33800 ft | 451 kts | 330° |
| 2026-05-05 19:00 | 50.18417 | 17.58754 | 33800 ft | 454 kts | 330° |
| 2026-05-05 19:00 | 50.23967 | 17.54190 | 33815 ft | 453 kts | 330° |
| 2026-05-05 19:01 | 50.29387 | 17.49188 | 33814 ft | 451 kts | 325° |
| 2026-05-05 19:01 | 50.34655 | 17.43922 | 33785 ft | 451 kts | 325° |
| 2026-05-05 19:02 | 50.39961 | 17.38668 | 33782 ft | 451 kts | 325° |
| 2026-05-05 19:02 | 50.45268 | 17.33407 | 33777 ft | 453 kts | 326° |
| 2026-05-05 19:03 | 50.50582 | 17.28126 | 33783 ft | 453 kts | 326° |
| 2026-05-05 19:03 | 50.55926 | 17.22800 | 33779 ft | 453 kts | 325° |
| 2026-05-05 19:04 | 50.61228 | 17.17501 | 33779 ft | 453 kts | 325° |
| 2026-05-05 19:04 | 50.66556 | 17.12162 | 33774 ft | 453 kts | 325° |
| 2026-05-05 19:05 | 50.71868 | 17.06826 | 33778 ft | 453 kts | 325° |
| 2026-05-05 19:05 | 50.77168 | 17.01486 | 33778 ft | 453 kts | 324° |
| 2026-05-05 19:06 | 50.82492 | 16.96107 | 33783 ft | 452 kts | 324° |
| 2026-05-05 19:06 | 50.87747 | 16.90784 | 33782 ft | 451 kts | 324° |
| 2026-05-05 19:07 | 50.92154 | 16.86308 | 33782 ft | 451 kts | 324° |
| 2026-05-05 19:07 | 50.98302 | 16.80047 | 33788 ft | 451 kts | 324° |
| 2026-05-05 19:08 | 51.03586 | 16.74651 | 33801 ft | 451 kts | 324° |
| 2026-05-05 19:08 | 51.08835 | 16.69275 | 33801 ft | 452 kts | 324° |
| 2026-05-05 19:09 | 51.14143 | 16.63824 | 33796 ft | 453 kts | 324° |
| 2026-05-05 19:09 | 51.19424 | 16.58386 | 33795 ft | 453 kts | 324° |
| 2026-05-05 19:10 | 51.24723 | 16.52913 | 33801 ft | 453 kts | 324° |
| 2026-05-05 19:10 | 51.29968 | 16.47482 | 33801 ft | 453 kts | 324° |
| 2026-05-05 19:11 | 51.35262 | 16.41984 | 33810 ft | 452 kts | 324° |
| 2026-05-05 19:11 | 51.40511 | 16.36518 | 33806 ft | 452 kts | 323° |
| 2026-05-05 19:12 | 51.45793 | 16.31003 | 33811 ft | 452 kts | 323° |
| 2026-05-05 19:12 | 51.51056 | 16.25493 | 33809 ft | 452 kts | 323° |
| 2026-05-05 19:13 | 51.55433 | 16.20901 | 33812 ft | 452 kts | 323° |
| 2026-05-05 19:13 | 51.60683 | 16.15309 | 33810 ft | 450 kts | 319° |
| 2026-05-05 19:14 | 51.62872 | 16.11783 | 33824 ft | 441 kts | 303° |
| 2026-05-05 19:14 | 51.64486 | 16.07619 | 33822 ft | 439 kts | 297° |
| 2026-05-05 19:14 | 51.67410 | 15.99062 | 33835 ft | 438 kts | 295° |
| 2026-05-05 19:15 | 51.70217 | 15.90387 | 33719 ft | 433 kts | 294° |
| 2026-05-05 19:15 | 51.71593 | 15.86065 | 32925 ft | 432 kts | 294° |
| 2026-05-05 19:15 | 51.72943 | 15.81807 | 32137 ft | 433 kts | 294° |
| 2026-05-05 19:16 | 51.74315 | 15.77466 | 31381 ft | 433 kts | 294° |
| 2026-05-05 19:16 | 51.75691 | 15.73105 | 30631 ft | 434 kts | 294° |
| 2026-05-05 19:16 | 51.77063 | 15.68749 | 29810 ft | 436 kts | 294° |
| 2026-05-05 19:16 | 51.78447 | 15.64345 | 28818 ft | 439 kts | 294° |
| 2026-05-05 19:17 | 51.79821 | 15.59968 | 27950 ft | 440 kts | 294° |
| 2026-05-05 19:17 | 51.81200 | 15.55565 | 27308 ft | 438 kts | 294° |
| 2026-05-05 19:17 | 51.82590 | 15.51118 | 26606 ft | 444 kts | 294° |
| 2026-05-05 19:17 | 51.83988 | 15.46638 | 25967 ft | 446 kts | 294° |
| 2026-05-05 19:18 | 51.85363 | 15.42227 | 25325 ft | 443 kts | 294° |
| 2026-05-05 19:18 | 51.86744 | 15.37788 | 24671 ft | 435 kts | 293° |
| 2026-05-05 19:18 | 51.88080 | 15.33485 | 24049 ft | 420 kts | 293° |
| 2026-05-05 19:18 | 51.89370 | 15.29319 | 23463 ft | 407 kts | 293° |
| 2026-05-05 19:19 | 51.90605 | 15.25327 | 22797 ft | 395 kts | 293° |
| 2026-05-05 19:19 | 51.91821 | 15.21394 | 22180 ft | 384 kts | 293° |
| 2026-05-05 19:19 | 51.93000 | 15.17571 | 21627 ft | 372 kts | 293° |
| 2026-05-05 19:19 | 51.94142 | 15.13861 | 21108 ft | 365 kts | 293° |
| 2026-05-05 19:20 | 51.95251 | 15.10255 | 20580 ft | 357 kts | 292° |
| 2026-05-05 19:20 | 51.96360 | 15.06641 | 20060 ft | 358 kts | 293° |
| 2026-05-05 19:20 | 51.97467 | 15.03030 | 19452 ft | 353 kts | 293° |
| 2026-05-05 19:20 | 51.98542 | 14.99517 | 18866 ft | 348 kts | 293° |
| 2026-05-05 19:21 | 51.99611 | 14.96020 | 18300 ft | 347 kts | 293° |
| 2026-05-05 19:21 | 52.00687 | 14.92492 | 17658 ft | 346 kts | 293° |
| 2026-05-05 19:21 | 52.01754 | 14.88993 | 16997 ft | 344 kts | 293° |
| 2026-05-05 19:21 | 52.02794 | 14.85576 | 16379 ft | 340 kts | 293° |
| 2026-05-05 19:22 | 52.03841 | 14.82133 | 15756 ft | 336 kts | 293° |
| 2026-05-05 19:22 | 52.04874 | 14.78732 | 15141 ft | 338 kts | 292° |
| 2026-05-05 19:22 | 52.05589 | 14.75103 | 14511 ft | 338 kts | 274° |
| 2026-05-05 19:22 | 52.05600 | 14.71323 | 14115 ft | 326 kts | 266° |
| 2026-05-05 19:23 | 52.05538 | 14.67741 | 14079 ft | 317 kts | 266° |
| 2026-05-05 19:23 | 52.05455 | 14.64159 | 13952 ft | 315 kts | 265° |
| 2026-05-05 19:23 | 52.05361 | 14.60657 | 13848 ft | 314 kts | 265° |
| 2026-05-05 19:23 | 52.05256 | 14.57088 | 13823 ft | 314 kts | 265° |
| 2026-05-05 19:24 | 52.05147 | 14.53545 | 13820 ft | 314 kts | 265° |
| 2026-05-05 19:24 | 52.05036 | 14.50041 | 13816 ft | 314 kts | 265° |
| 2026-05-05 19:24 | 52.04921 | 14.46480 | 13697 ft | 314 kts | 265° |
| 2026-05-05 19:24 | 52.04807 | 14.42962 | 13442 ft | 313 kts | 265° |
| 2026-05-05 19:25 | 52.04919 | 14.39434 | 13183 ft | 313 kts | 276° |
| 2026-05-05 19:25 | 52.05212 | 14.35925 | 12934 ft | 313 kts | 275° |
| 2026-05-05 19:25 | 52.05473 | 14.32406 | 12678 ft | 312 kts | 274° |
| 2026-05-05 19:25 | 52.05716 | 14.28945 | 12429 ft | 311 kts | 274° |
| 2026-05-05 19:26 | 52.05953 | 14.25441 | 12177 ft | 310 kts | 274° |
| 2026-05-05 19:26 | 52.06181 | 14.21969 | 11940 ft | 306 kts | 274° |
| 2026-05-05 19:26 | 52.06405 | 14.18511 | 11570 ft | 307 kts | 274° |
| 2026-05-05 19:26 | 52.06624 | 14.15105 | 11283 ft | 306 kts | 274° |
| 2026-05-05 19:27 | 52.06842 | 14.11679 | 11041 ft | 305 kts | 274° |
| 2026-05-05 19:27 | 52.07060 | 14.08236 | 10800 ft | 305 kts | 274° |
| 2026-05-05 19:27 | 52.07275 | 14.04822 | 10565 ft | 304 kts | 274° |
| 2026-05-05 19:27 | 52.07488 | 14.01429 | 10323 ft | 303 kts | 274° |
| 2026-05-05 19:28 | 52.07699 | 13.98048 | 10087 ft | 297 kts | 274° |
| 2026-05-05 19:28 | 52.07902 | 13.94772 | 9845 ft | 286 kts | 274° |
| 2026-05-05 19:28 | 52.08100 | 13.91573 | 9610 ft | 282 kts | 274° |
| 2026-05-05 19:28 | 52.08292 | 13.88439 | 9352 ft | 281 kts | 274° |
| 2026-05-05 19:29 | 52.08486 | 13.85277 | 9107 ft | 279 kts | 275° |
| 2026-05-05 19:29 | 52.08679 | 13.82135 | 8845 ft | 278 kts | 274° |
| 2026-05-05 19:29 | 52.08869 | 13.79042 | 8595 ft | 277 kts | 274° |
| 2026-05-05 19:29 | 52.09085 | 13.75947 | 8347 ft | 276 kts | 275° |
| 2026-05-05 19:30 | 52.09313 | 13.72834 | 8098 ft | 275 kts | 275° |
| 2026-05-05 19:30 | 52.09526 | 13.69776 | 7877 ft | 274 kts | 275° |
| 2026-05-05 19:30 | 52.09740 | 13.66704 | 7839 ft | 273 kts | 275° |
| 2026-05-05 19:30 | 52.09961 | 13.63615 | 7828 ft | 273 kts | 275° |
| 2026-05-05 19:31 | 52.10170 | 13.60538 | 7826 ft | 274 kts | 275° |
| 2026-05-05 19:31 | 52.10370 | 13.57442 | 7825 ft | 275 kts | 275° |
| 2026-05-05 19:31 | 52.10577 | 13.54400 | 7823 ft | 274 kts | 274° |
| 2026-05-05 19:31 | 52.10798 | 13.51310 | 7824 ft | 274 kts | 275° |
| 2026-05-05 19:32 | 52.11009 | 13.48222 | 7815 ft | 274 kts | 275° |
| 2026-05-05 19:32 | 52.11227 | 13.45144 | 7804 ft | 274 kts | 275° |
| 2026-05-05 19:32 | 52.11449 | 13.42073 | 7575 ft | 273 kts | 275° |
| 2026-05-05 19:32 | 52.11659 | 13.38996 | 7330 ft | 273 kts | 275° |
| 2026-05-05 19:33 | 52.11862 | 13.35964 | 7094 ft | 273 kts | 275° |
| 2026-05-05 19:33 | 52.12048 | 13.32875 | 6851 ft | 273 kts | 275° |
| 2026-05-05 19:33 | 52.12232 | 13.29823 | 6608 ft | 273 kts | 275° |
| 2026-05-05 19:33 | 52.12413 | 13.26739 | 6366 ft | 273 kts | 275° |
| 2026-05-05 19:34 | 52.12588 | 13.23658 | 6122 ft | 272 kts | 275° |
| 2026-05-05 19:34 | 52.12764 | 13.20570 | 5859 ft | 272 kts | 275° |
| 2026-05-05 19:34 | 52.12943 | 13.17540 | 5605 ft | 272 kts | 277° |
| 2026-05-05 19:35 | 52.14691 | 13.12238 | 5073 ft | 269 kts | 319° |
| 2026-05-05 19:35 | 52.16153 | 13.10398 | 4835 ft | 269 kts | 324° |
| 2026-05-05 19:35 | 52.17670 | 13.08584 | 4589 ft | 269 kts | 324° |
| 2026-05-05 19:35 | 52.19193 | 13.06810 | 4332 ft | 267 kts | 329° |
| 2026-05-05 19:36 | 52.20884 | 13.05734 | 4071 ft | 262 kts | 351° |
| 2026-05-05 19:36 | 52.22680 | 13.05780 | 3806 ft | 256 kts | 17° |
| 2026-05-05 19:36 | 52.24242 | 13.07052 | 3544 ft | 250 kts | 41° |
| 2026-05-05 19:36 | 52.25393 | 13.09149 | 3291 ft | 246 kts | 57° |
| 2026-05-05 19:37 | 52.26160 | 13.11549 | 3122 ft | 235 kts | 68° |
| 2026-05-05 19:37 | 52.26726 | 13.13947 | 3065 ft | 215 kts | 70° |
| 2026-05-05 19:37 | 52.27238 | 13.16140 | 3047 ft | 198 kts | 69° |
| 2026-05-05 19:37 | 52.27737 | 13.18246 | 3018 ft | 198 kts | 69° |
| 2026-05-05 19:38 | 52.28226 | 13.20302 | 2996 ft | 194 kts | 68° |
| 2026-05-05 19:38 | 52.28697 | 13.22280 | 2999 ft | 182 kts | 69° |
| 2026-05-05 19:38 | 52.29154 | 13.24200 | 2992 ft | 182 kts | 69° |
| 2026-05-05 19:38 | 52.29612 | 13.26124 | 2767 ft | 180 kts | 69° |
| 2026-05-05 19:39 | 52.30064 | 13.28027 | 2590 ft | 178 kts | 69° |
| 2026-05-05 19:39 | 52.30509 | 13.29899 | 2363 ft | 176 kts | 69° |
| 2026-05-05 19:39 | 52.30954 | 13.31770 | 2125 ft | 176 kts | 69° |
| 2026-05-05 19:39 | 52.31390 | 13.33598 | 1897 ft | 173 kts | 69° |
| 2026-05-05 19:40 | 52.31800 | 13.35323 | 1687 ft | 151 kts | 68° |
| 2026-05-05 19:40 | 52.32158 | 13.36827 | 1479 ft | 132 kts | 69° |
| 2026-05-05 19:40 | 52.32485 | 13.38200 | 1308 ft | 131 kts | 68° |
| 2026-05-05 19:40 | 52.32802 | 13.39574 | 1145 ft | 131 kts | 68° |
| 2026-05-05 19:41 | 52.33142 | 13.40955 | 966 ft | 132 kts | 66° |
| 2026-05-05 19:41 | 52.33474 | 13.42357 | 794 ft | 131 kts | 69° |
| 2026-05-05 19:41 | 52.33792 | 13.43752 | 666 ft | 131 kts | 64° |
| 2026-05-05 19:41 | 52.34130 | 13.45106 | 409 ft | 128 kts | 68° |
| 2026-05-05 19:42 | 52.34420 | 13.46321 | 298 ft | 131 kts | 66° |
| 2026-05-05 19:42 | 52.34687 | 13.47444 | 173 ft | 133 kts | 67° |
| 2026-05-05 19:42 | 52.34979 | 13.48669 | 157 ft | 106 kts | 69° |
| 2026-05-05 19:42 | 52.35190 | 13.49556 | 157 ft | 76 kts | 68° |
| 2026-05-05 19:43 | 52.35327 | 13.50149 | 157 ft | 40 kts | 69° |
| 2026-05-05 19:43 | 52.35444 | 13.50494 | 157 ft | 26 kts | 48° |
| 2026-05-05 19:43 | 52.35550 | 13.50649 | 157 ft | 17 kts | 39° |
| 2026-05-05 19:43 | 52.35619 | 13.50739 | 157 ft | 10 kts | 38° |
| 2026-05-05 19:44 | 52.35675 | 13.50809 | 157 ft | 9 kts | 36° |
| 2026-05-05 19:44 | 52.35730 | 13.50855 | 157 ft | 6 kts | 5° |
| 2026-05-05 19:44 | 52.35745 | 13.50847 | 157 ft | 0 kts | 333° |
| 2026-05-05 19:45 | 52.35749 | 13.50844 | 157 ft | 2 kts | 333° |
| 2026-05-05 19:45 | 52.35772 | 13.50825 | 157 ft | 5 kts | 337° |
| 2026-05-05 19:46 | 52.35802 | 13.50806 | 157 ft | 5 kts | 339° |
| 2026-05-05 19:46 | 52.35848 | 13.50777 | 157 ft | 8 kts | 339° |
| 2026-05-05 19:46 | 52.35904 | 13.50741 | 157 ft | 7 kts | 339° |
| 2026-05-05 19:46 | 52.35953 | 13.50710 | 157 ft | 10 kts | 338° |
| 2026-05-05 19:47 | 52.36018 | 13.50672 | 157 ft | 6 kts | 354° |
| 2026-05-05 19:47 | 52.36034 | 13.50694 | 157 ft | 3 kts | 75° |
| 2026-05-05 19:47 | 52.36047 | 13.50750 | 157 ft | 5 kts | 69° |
| 2026-05-05 19:47 | 52.36053 | 13.50779 | 157 ft | 3 kts | 69° |
| 2026-05-05 19:48 | 52.36061 | 13.50810 | 157 ft | 0 kts | 69° |